sensor_id;sensor_type;location;lat;lon;timestamp;temperature;humidity
66722;SHT31;53633;49.932;10.884;2024-03-23T00:56:11;9.96;77.96
66722;SHT31;53633;49.932;10.884;2024-03-23T00:58:36;9.96;78.13
66722;SHT31;53633;49.932;10.884;2024-03-23T01:01:02;9.96;78.34
66722;SHT31;53633;49.932;10.884;2024-03-23T01:03:28;9.98;78.39
66722;SHT31;53633;49.932;10.884;2024-03-23T01:05:57;10.05;78.34
66722;SHT31;53633;49.932;10.884;2024-03-23T01:08:24;10.08;78.41
66722;SHT31;53633;49.932;10.884;2024-03-23T01:10:55;10.13;78.30
66722;SHT31;53633;49.932;10.884;2024-03-23T01:13:21;10.23;78.22
66722;SHT31;53633;49.932;10.884;2024-03-23T01:15:48;10.21;78.01
66722;SHT31;53633;49.932;10.884;2024-03-23T01:18:14;10.13;78.28
66722;SHT31;53633;49.932;10.884;2024-03-23T01:20:40;10.16;78.21
66722;SHT31;53633;49.932;10.884;2024-03-23T01:23:06;10.16;78.34
66722;SHT31;53633;49.932;10.884;2024-03-23T01:25:32;10.12;78.59
66722;SHT31;53633;49.932;10.884;2024-03-23T01:27:59;10.12;78.45
66722;SHT31;53633;49.932;10.884;2024-03-23T01:30:25;10.13;78.38
66722;SHT31;53633;49.932;10.884;2024-03-23T01:32:50;10.12;78.12
66722;SHT31;53633;49.932;10.884;2024-03-23T01:35:16;10.12;77.83
66722;SHT31;53633;49.932;10.884;2024-03-23T01:37:42;10.08;78.02
66722;SHT31;53633;49.932;10.884;2024-03-23T01:40:09;9.98;78.23
66722;SHT31;53633;49.932;10.884;2024-03-23T01:42:35;9.92;78.50
66722;SHT31;53633;49.932;10.884;2024-03-23T01:45:08;10.01;78.34
66722;SHT31;53633;49.932;10.884;2024-03-23T01:47:34;10.02;78.11
66722;SHT31;53633;49.932;10.884;2024-03-23T01:50:00;10.01;78.43
66722;SHT31;53633;49.932;10.884;2024-03-23T01:52:25;10.05;78.23
66722;SHT31;53633;49.932;10.884;2024-03-23T01:54:51;10.08;78.25
66722;SHT31;53633;49.932;10.884;2024-03-23T01:57:17;10.08;78.18
66722;SHT31;53633;49.932;10.884;2024-03-23T01:59:43;9.98;78.24
66722;SHT31;53633;49.932;10.884;2024-03-23T02:02:10;9.88;78.54
66722;SHT31;53633;49.932;10.884;2024-03-23T02:04:36;9.83;78.84
66722;SHT31;53633;49.932;10.884;2024-03-23T02:07:02;9.79;78.84
66722;SHT31;53633;49.932;10.884;2024-03-23T02:09:28;9.74;79.00
66722;SHT31;53633;49.932;10.884;2024-03-23T02:11:54;9.74;79.10
66722;SHT31;53633;49.932;10.884;2024-03-23T02:14:20;9.71;79.34
66722;SHT31;53633;49.932;10.884;2024-03-23T02:16:46;9.75;79.40
66722;SHT31;53633;49.932;10.884;2024-03-23T02:19:13;9.78;79.48
66722;SHT31;53633;49.932;10.884;2024-03-23T02:21:39;9.79;79.44
66722;SHT31;53633;49.932;10.884;2024-03-23T02:24:06;9.81;79.34
66722;SHT31;53633;49.932;10.884;2024-03-23T02:26:32;9.81;79.60
66722;SHT31;53633;49.932;10.884;2024-03-23T02:28:58;9.77;79.42
66722;SHT31;53633;49.932;10.884;2024-03-23T02:31:24;9.79;79.40
66722;SHT31;53633;49.932;10.884;2024-03-23T02:33:50;9.78;79.57
66722;SHT31;53633;49.932;10.884;2024-03-23T02:36:16;9.89;79.50
66722;SHT31;53633;49.932;10.884;2024-03-23T02:38:42;9.99;79.28
66722;SHT31;53633;49.932;10.884;2024-03-23T02:41:09;10.06;79.19
66722;SHT31;53633;49.932;10.884;2024-03-23T02:43:36;10.12;78.96
66722;SHT31;53633;49.932;10.884;2024-03-23T02:46:02;10.17;78.83
66722;SHT31;53633;49.932;10.884;2024-03-23T02:48:28;10.21;78.73
66722;SHT31;53633;49.932;10.884;2024-03-23T02:50:54;10.29;78.64
66722;SHT31;53633;49.932;10.884;2024-03-23T02:53:22;10.32;78.56
66722;SHT31;53633;49.932;10.884;2024-03-23T02:55:47;10.34;78.45
66722;SHT31;53633;49.932;10.884;2024-03-23T02:58:15;10.39;78.45
66722;SHT31;53633;49.932;10.884;2024-03-23T03:00:40;10.40;78.41
66722;SHT31;53633;49.932;10.884;2024-03-23T03:03:06;10.47;78.19
66722;SHT31;53633;49.932;10.884;2024-03-23T03:05:32;10.51;78.05
66722;SHT31;53633;49.932;10.884;2024-03-23T03:07:58;10.61;77.90
66722;SHT31;53633;49.932;10.884;2024-03-23T03:10:24;10.63;77.73
66722;SHT31;53633;49.932;10.884;2024-03-23T03:12:50;10.69;77.65
66722;SHT31;53633;49.932;10.884;2024-03-23T03:15:18;10.72;77.55
66722;SHT31;53633;49.932;10.884;2024-03-23T03:17:44;10.72;77.74
66722;SHT31;53633;49.932;10.884;2024-03-23T03:20:10;10.68;78.16
66722;SHT31;53633;49.932;10.884;2024-03-23T03:22:36;10.68;78.27
66722;SHT31;53633;49.932;10.884;2024-03-23T03:25:02;10.65;78.56
66722;SHT31;53633;49.932;10.884;2024-03-23T03:27:28;10.63;78.72
66722;SHT31;53633;49.932;10.884;2024-03-23T03:29:56;10.64;78.69
66722;SHT31;53633;49.932;10.884;2024-03-23T03:32:24;10.67;78.76
66722;SHT31;53633;49.932;10.884;2024-03-23T03:34:50;10.67;78.79
66722;SHT31;53633;49.932;10.884;2024-03-23T03:37:15;10.69;78.82
66722;SHT31;53633;49.932;10.884;2024-03-23T03:39:41;10.69;78.82
66722;SHT31;53633;49.932;10.884;2024-03-23T03:42:07;10.74;78.84
66722;SHT31;53633;49.932;10.884;2024-03-23T03:44:33;10.75;78.77
66722;SHT31;53633;49.932;10.884;2024-03-23T03:46:59;10.69;78.68
66722;SHT31;53633;49.932;10.884;2024-03-23T03:49:26;10.68;78.79
66722;SHT31;53633;49.932;10.884;2024-03-23T03:51:52;10.68;78.77
66722;SHT31;53633;49.932;10.884;2024-03-23T03:54:17;10.74;78.75
66722;SHT31;53633;49.932;10.884;2024-03-23T03:56:43;10.72;78.76
66722;SHT31;53633;49.932;10.884;2024-03-23T03:59:09;10.77;78.71
66722;SHT31;53633;49.932;10.884;2024-03-23T04:01:35;10.75;78.88
66722;SHT31;53633;49.932;10.884;2024-03-23T04:04:01;10.78;79.16
66722;SHT31;53633;49.932;10.884;2024-03-23T04:06:28;10.85;79.58
66722;SHT31;53633;49.932;10.884;2024-03-23T04:08:54;10.84;80.77
66722;SHT31;53633;49.932;10.884;2024-03-23T04:11:20;10.81;81.30
66722;SHT31;53633;49.932;10.884;2024-03-23T04:13:46;10.78;81.41
66722;SHT31;53633;49.932;10.884;2024-03-23T04:16:11;10.81;81.92
66722;SHT31;53633;49.932;10.884;2024-03-23T04:18:38;10.77;82.16
66722;SHT31;53633;49.932;10.884;2024-03-23T04:21:04;10.74;82.51
66722;SHT31;53633;49.932;10.884;2024-03-23T04:23:31;10.68;82.81
66722;SHT31;53633;49.932;10.884;2024-03-23T04:26:03;10.68;82.98
66722;SHT31;53633;49.932;10.884;2024-03-23T04:28:29;10.67;83.44
66722;SHT31;53633;49.932;10.884;2024-03-23T04:30:54;10.67;83.54
66722;SHT31;53633;49.932;10.884;2024-03-23T04:33:20;10.58;84.97
66722;SHT31;53633;49.932;10.884;2024-03-23T04:35:48;10.63;85.31
66722;SHT31;53633;49.932;10.884;2024-03-23T04:38:14;10.61;85.34
66722;SHT31;53633;49.932;10.884;2024-03-23T04:40:42;10.64;85.25
66722;SHT31;53633;49.932;10.884;2024-03-23T04:43:07;10.64;85.86
66722;SHT31;53633;49.932;10.884;2024-03-23T04:45:33;10.57;86.87
66722;SHT31;53633;49.932;10.884;2024-03-23T04:47:59;10.60;86.68
66722;SHT31;53633;49.932;10.884;2024-03-23T04:50:25;10.58;87.03
66722;SHT31;53633;49.932;10.884;2024-03-23T04:52:50;10.56;87.50
66722;SHT31;53633;49.932;10.884;2024-03-23T04:55:16;10.61;87.49
66722;SHT31;53633;49.932;10.884;2024-03-23T04:57:43;10.64;87.40
66722;SHT31;53633;49.932;10.884;2024-03-23T05:00:11;10.68;87.28
66722;SHT31;53633;49.932;10.884;2024-03-23T05:02:37;10.69;87.21
66722;SHT31;53633;49.932;10.884;2024-03-23T05:05:02;10.68;86.92
66722;SHT31;53633;49.932;10.884;2024-03-23T05:07:29;10.68;86.66
66722;SHT31;53633;49.932;10.884;2024-03-23T05:09:54;10.65;86.59
66722;SHT31;53633;49.932;10.884;2024-03-23T05:12:20;10.69;86.33
66722;SHT31;53633;49.932;10.884;2024-03-23T05:14:48;10.69;86.03
66722;SHT31;53633;49.932;10.884;2024-03-23T05:17:13;10.74;85.92
66722;SHT31;53633;49.932;10.884;2024-03-23T05:19:41;10.72;86.11
66722;SHT31;53633;49.932;10.884;2024-03-23T05:22:07;10.79;85.71
66722;SHT31;53633;49.932;10.884;2024-03-23T05:24:34;10.77;85.62
66722;SHT31;53633;49.932;10.884;2024-03-23T05:26:59;10.71;85.79
66722;SHT31;53633;49.932;10.884;2024-03-23T05:29:25;10.63;86.08
66722;SHT31;53633;49.932;10.884;2024-03-23T05:31:52;10.61;86.28
66722;SHT31;53633;49.932;10.884;2024-03-23T05:34:18;10.61;86.38
66722;SHT31;53633;49.932;10.884;2024-03-23T05:36:44;10.63;86.37
66722;SHT31;53633;49.932;10.884;2024-03-23T05:39:11;10.63;86.29
66722;SHT31;53633;49.932;10.884;2024-03-23T05:41:37;10.61;86.13
66722;SHT31;53633;49.932;10.884;2024-03-23T05:44:04;10.58;85.91
66722;SHT31;53633;49.932;10.884;2024-03-23T05:46:30;10.63;85.89
66722;SHT31;53633;49.932;10.884;2024-03-23T05:49:01;10.67;85.89
66722;SHT31;53633;49.932;10.884;2024-03-23T05:51:27;10.74;85.75
66722;SHT31;53633;49.932;10.884;2024-03-23T05:53:53;10.85;85.34
66722;SHT31;53633;49.932;10.884;2024-03-23T05:56:19;10.81;85.28
66722;SHT31;53633;49.932;10.884;2024-03-23T05:58:45;10.68;85.70
66722;SHT31;53633;49.932;10.884;2024-03-23T06:01:11;10.65;85.72
66722;SHT31;53633;49.932;10.884;2024-03-23T06:03:37;10.65;85.89
66722;SHT31;53633;49.932;10.884;2024-03-23T06:06:05;10.60;85.90
66722;SHT31;53633;49.932;10.884;2024-03-23T06:08:31;10.58;85.97
66722;SHT31;53633;49.932;10.884;2024-03-23T06:10:57;10.60;85.93
66722;SHT31;53633;49.932;10.884;2024-03-23T06:13:22;10.61;85.78
66722;SHT31;53633;49.932;10.884;2024-03-23T06:15:48;10.57;85.90
66722;SHT31;53633;49.932;10.884;2024-03-23T06:18:14;10.58;86.04
66722;SHT31;53633;49.932;10.884;2024-03-23T06:20:40;10.63;85.84
66722;SHT31;53633;49.932;10.884;2024-03-23T06:23:07;10.65;86.00
66722;SHT31;53633;49.932;10.884;2024-03-23T06:25:34;10.75;85.75
66722;SHT31;53633;49.932;10.884;2024-03-23T06:27:59;10.84;85.60
66722;SHT31;53633;49.932;10.884;2024-03-23T06:30:25;10.84;85.50
66722;SHT31;53633;49.932;10.884;2024-03-23T06:32:53;10.85;85.61
66722;SHT31;53633;49.932;10.884;2024-03-23T06:35:20;10.89;85.61
66722;SHT31;53633;49.932;10.884;2024-03-23T06:37:48;10.89;85.52
66722;SHT31;53633;49.932;10.884;2024-03-23T06:40:15;10.94;85.56
66722;SHT31;53633;49.932;10.884;2024-03-23T06:42:41;11.01;85.46
66722;SHT31;53633;49.932;10.884;2024-03-23T06:45:08;11.01;85.43
66722;SHT31;53633;49.932;10.884;2024-03-23T06:47:35;10.95;85.49
66722;SHT31;53633;49.932;10.884;2024-03-23T06:50:02;10.96;85.40
66722;SHT31;53633;49.932;10.884;2024-03-23T06:52:28;10.99;85.55
66722;SHT31;53633;49.932;10.884;2024-03-23T06:54:55;11.04;85.26
66722;SHT31;53633;49.932;10.884;2024-03-23T06:57:23;11.15;85.30
66722;SHT31;53633;49.932;10.884;2024-03-23T06:59:50;11.08;84.61
66722;SHT31;53633;49.932;10.884;2024-03-23T07:02:16;11.05;83.58
66722;SHT31;53633;49.932;10.884;2024-03-23T07:04:43;11.08;83.59
66722;SHT31;53633;49.932;10.884;2024-03-23T07:07:09;11.02;82.98
66722;SHT31;53633;49.932;10.884;2024-03-23T07:09:35;10.95;82.58
66722;SHT31;53633;49.932;10.884;2024-03-23T07:12:00;11.01;82.58
66722;SHT31;53633;49.932;10.884;2024-03-23T07:14:28;11.04;82.89
66722;SHT31;53633;49.932;10.884;2024-03-23T07:16:54;10.92;83.70
66722;SHT31;53633;49.932;10.884;2024-03-23T07:19:20;10.85;84.25
66722;SHT31;53633;49.932;10.884;2024-03-23T07:21:47;10.77;84.76
66722;SHT31;53633;49.932;10.884;2024-03-23T07:24:12;10.69;84.55
66722;SHT31;53633;49.932;10.884;2024-03-23T07:26:38;10.60;84.35
66722;SHT31;53633;49.932;10.884;2024-03-23T07:29:06;10.53;84.03
66722;SHT31;53633;49.932;10.884;2024-03-23T07:31:37;10.56;84.18
66722;SHT31;53633;49.932;10.884;2024-03-23T07:34:03;10.57;83.64
66722;SHT31;53633;49.932;10.884;2024-03-23T07:36:29;10.61;82.31
66722;SHT31;53633;49.932;10.884;2024-03-23T07:38:54;10.64;82.61
66722;SHT31;53633;49.932;10.884;2024-03-23T07:41:20;10.60;82.13
66722;SHT31;53633;49.932;10.884;2024-03-23T07:43:47;10.63;81.65
66722;SHT31;53633;49.932;10.884;2024-03-23T07:46:15;10.58;81.58
66722;SHT31;53633;49.932;10.884;2024-03-23T07:48:42;10.61;81.47
66722;SHT31;53633;49.932;10.884;2024-03-23T07:51:09;10.56;81.52
66722;SHT31;53633;49.932;10.884;2024-03-23T07:53:36;10.44;81.85
66722;SHT31;53633;49.932;10.884;2024-03-23T07:56:03;10.36;82.39
66722;SHT31;53633;49.932;10.884;2024-03-23T07:58:29;10.37;82.60
66722;SHT31;53633;49.932;10.884;2024-03-23T08:00:55;10.46;82.38
66722;SHT31;53633;49.932;10.884;2024-03-23T08:03:21;10.39;81.65
66722;SHT31;53633;49.932;10.884;2024-03-23T08:05:49;10.36;81.21
66722;SHT31;53633;49.932;10.884;2024-03-23T08:08:19;10.43;80.97
66722;SHT31;53633;49.932;10.884;2024-03-23T08:10:49;10.71;81.03
66722;SHT31;53633;49.932;10.884;2024-03-23T08:13:16;10.84;80.71
66722;SHT31;53633;49.932;10.884;2024-03-23T08:15:42;10.84;80.73
66722;SHT31;53633;49.932;10.884;2024-03-23T08:18:08;10.72;80.73
66722;SHT31;53633;49.932;10.884;2024-03-23T08:20:34;10.81;80.55
66722;SHT31;53633;49.932;10.884;2024-03-23T08:23:01;10.82;80.38
66722;SHT31;53633;49.932;10.884;2024-03-23T08:25:27;10.68;80.71
66722;SHT31;53633;49.932;10.884;2024-03-23T08:27:56;10.40;80.36
66722;SHT31;53633;49.932;10.884;2024-03-23T08:30:21;10.16;81.01
66722;SHT31;53633;49.932;10.884;2024-03-23T08:32:47;10.17;81.02
66722;SHT31;53633;49.932;10.884;2024-03-23T08:35:13;9.93;81.15
66722;SHT31;53633;49.932;10.884;2024-03-23T08:37:39;9.78;80.73
66722;SHT31;53633;49.932;10.884;2024-03-23T08:40:11;9.52;81.19
66722;SHT31;53633;49.932;10.884;2024-03-23T08:42:37;9.67;81.24
66722;SHT31;53633;49.932;10.884;2024-03-23T08:45:05;9.45;79.77
66722;SHT31;53633;49.932;10.884;2024-03-23T08:47:34;9.20;79.22
66722;SHT31;53633;49.932;10.884;2024-03-23T08:50:00;9.13;79.52
66722;SHT31;53633;49.932;10.884;2024-03-23T08:52:25;9.13;80.18
66722;SHT31;53633;49.932;10.884;2024-03-23T08:54:51;9.13;80.52
66722;SHT31;53633;49.932;10.884;2024-03-23T08:57:19;9.06;77.92
66722;SHT31;53633;49.932;10.884;2024-03-23T08:59:44;9.12;77.09
66722;SHT31;53633;49.932;10.884;2024-03-23T09:02:10;9.07;75.28
66722;SHT31;53633;49.932;10.884;2024-03-23T09:04:36;9.36;75.56
66722;SHT31;53633;49.932;10.884;2024-03-23T09:07:03;9.52;73.32
66722;SHT31;53633;49.932;10.884;2024-03-23T09:09:29;10.17;71.99
66722;SHT31;53633;49.932;10.884;2024-03-23T09:11:55;10.86;71.08
66722;SHT31;53633;49.932;10.884;2024-03-23T09:14:23;11.74;68.71
66722;SHT31;53633;49.932;10.884;2024-03-23T09:16:50;11.74;66.68
66722;SHT31;53633;49.932;10.884;2024-03-23T09:19:16;11.47;66.71
66722;SHT31;53633;49.932;10.884;2024-03-23T09:21:42;11.70;67.11
66722;SHT31;53633;49.932;10.884;2024-03-23T09:24:09;11.63;65.45
66722;SHT31;53633;49.932;10.884;2024-03-23T09:26:35;11.85;64.84
66722;SHT31;53633;49.932;10.884;2024-03-23T09:29:01;12.43;64.63
66722;SHT31;53633;49.932;10.884;2024-03-23T09:31:29;13.04;62.64
66722;SHT31;53633;49.932;10.884;2024-03-23T09:33:54;12.81;61.93
66722;SHT31;53633;49.932;10.884;2024-03-23T09:36:20;13.40;60.77
66722;SHT31;53633;49.932;10.884;2024-03-23T09:38:46;13.48;59.43
66722;SHT31;53633;49.932;10.884;2024-03-23T09:41:12;13.16;59.30
66722;SHT31;53633;49.932;10.884;2024-03-23T09:43:41;13.11;61.56
66722;SHT31;53633;49.932;10.884;2024-03-23T09:46:08;11.87;62.82
66722;SHT31;53633;49.932;10.884;2024-03-23T09:48:36;11.11;64.05
66722;SHT31;53633;49.932;10.884;2024-03-23T09:51:03;10.88;65.02
66722;SHT31;53633;49.932;10.884;2024-03-23T09:56:14;11.06;65.93
66722;SHT31;53633;49.932;10.884;2024-03-23T09:58:45;11.11;65.28
66722;SHT31;53633;49.932;10.884;2024-03-23T10:01:13;11.20;65.34
66722;SHT31;53633;49.932;10.884;2024-03-23T10:03:46;11.01;65.50
66722;SHT31;53633;49.932;10.884;2024-03-23T10:06:13;11.33;65.28
66722;SHT31;53633;49.932;10.884;2024-03-23T10:08:39;11.43;65.04
66722;SHT31;53633;49.932;10.884;2024-03-23T10:11:14;11.18;62.67
66722;SHT31;53633;49.932;10.884;2024-03-23T10:13:46;11.18;63.09
66722;SHT31;53633;49.932;10.884;2024-03-23T10:16:24;11.30;63.40
66722;SHT31;53633;49.932;10.884;2024-03-23T10:18:53;11.50;64.39
66722;SHT31;53633;49.932;10.884;2024-03-23T10:21:23;11.13;62.40
66722;SHT31;53633;49.932;10.884;2024-03-23T10:24:15;11.06;62.95
66722;SHT31;53633;49.932;10.884;2024-03-23T10:29:51;10.84;63.71
66722;SHT31;53633;49.932;10.884;2024-03-23T10:32:17;10.89;63.92
66722;SHT31;53633;49.932;10.884;2024-03-23T10:34:49;10.99;64.41
66722;SHT31;53633;49.932;10.884;2024-03-23T10:37:20;11.24;64.25
66722;SHT31;53633;49.932;10.884;2024-03-23T10:39:47;11.08;63.29
66722;SHT31;53633;49.932;10.884;2024-03-23T10:45:16;10.81;62.83
66722;SHT31;53633;49.932;10.884;2024-03-23T10:47:42;10.56;63.42
66722;SHT31;53633;49.932;10.884;2024-03-23T10:50:29;10.30;63.36
66722;SHT31;53633;49.932;10.884;2024-03-23T10:52:59;10.47;62.96
66722;SHT31;53633;49.932;10.884;2024-03-23T10:55:31;10.77;64.07
66722;SHT31;53633;49.932;10.884;2024-03-23T10:58:00;10.63;62.06
66722;SHT31;53633;49.932;10.884;2024-03-23T11:00:37;10.67;62.11
66722;SHT31;53633;49.932;10.884;2024-03-23T11:03:31;11.05;61.82
66722;SHT31;53633;49.932;10.884;2024-03-23T11:06:33;11.49;62.55
66722;SHT31;53633;49.932;10.884;2024-03-23T11:09:38;11.91;60.85
66722;SHT31;53633;49.932;10.884;2024-03-23T11:12:58;12.06;59.08
66722;SHT31;53633;49.932;10.884;2024-03-23T11:16:28;11.71;58.80
66722;SHT31;53633;49.932;10.884;2024-03-23T11:20:10;11.19;58.92
66722;SHT31;53633;49.932;10.884;2024-03-23T11:29:29;11.46;60.32
66722;SHT31;53633;49.932;10.884;2024-03-23T11:38:12;11.20;61.73
66722;SHT31;53633;49.932;10.884;2024-03-23T11:40:40;11.30;62.60
66722;SHT31;53633;49.932;10.884;2024-03-23T11:43:08;11.46;62.07
66722;SHT31;53633;49.932;10.884;2024-03-23T11:45:39;11.43;59.44
66722;SHT31;53633;49.932;10.884;2024-03-23T11:48:08;11.30;58.00
66722;SHT31;53633;49.932;10.884;2024-03-23T11:50:38;11.06;57.57
66722;SHT31;53633;49.932;10.884;2024-03-23T11:53:09;11.06;58.31
66722;SHT31;53633;49.932;10.884;2024-03-23T11:55:46;11.29;58.90
66722;SHT31;53633;49.932;10.884;2024-03-23T11:58:32;10.99;57.88
66722;SHT31;53633;49.932;10.884;2024-03-23T12:04:43;10.85;58.37
66722;SHT31;53633;49.932;10.884;2024-03-23T12:07:40;10.82;58.67
66722;SHT31;53633;49.932;10.884;2024-03-23T12:10:27;10.74;58.26
66722;SHT31;53633;49.932;10.884;2024-03-23T12:13:11;10.94;58.10
66722;SHT31;53633;49.932;10.884;2024-03-23T12:15:49;11.20;58.07
66722;SHT31;53633;49.932;10.884;2024-03-23T12:18:31;11.30;57.80
66722;SHT31;53633;49.932;10.884;2024-03-23T12:21:42;11.37;56.05
66722;SHT31;53633;49.932;10.884;2024-03-23T12:24:10;11.01;54.28
66722;SHT31;53633;49.932;10.884;2024-03-23T12:26:38;10.98;54.23
66722;SHT31;53633;49.932;10.884;2024-03-23T12:29:05;11.09;53.39
66722;SHT31;53633;49.932;10.884;2024-03-23T12:31:33;10.96;51.14
66722;SHT31;53633;49.932;10.884;2024-03-23T12:34:05;10.86;52.57
66722;SHT31;53633;49.932;10.884;2024-03-23T12:36:43;10.84;53.00
66722;SHT31;53633;49.932;10.884;2024-03-23T12:39:13;10.88;51.76
66722;SHT31;53633;49.932;10.884;2024-03-23T12:41:46;10.71;51.03
66722;SHT31;53633;49.932;10.884;2024-03-23T12:44:18;10.68;51.65
66722;SHT31;53633;49.932;10.884;2024-03-23T12:46:45;10.79;52.10
66722;SHT31;53633;49.932;10.884;2024-03-23T12:49:14;10.71;50.79
66722;SHT31;53633;49.932;10.884;2024-03-23T12:51:49;10.51;51.36
66722;SHT31;53633;49.932;10.884;2024-03-23T12:54:19;10.57;51.74
66722;SHT31;53633;49.932;10.884;2024-03-23T12:56:48;10.63;52.34
66722;SHT31;53633;49.932;10.884;2024-03-23T12:59:15;10.53;53.02
66722;SHT31;53633;49.932;10.884;2024-03-23T13:01:43;10.74;54.05
66722;SHT31;53633;49.932;10.884;2024-03-23T13:04:11;10.68;54.33
66722;SHT31;53633;49.932;10.884;2024-03-23T13:06:37;10.72;54.59
66722;SHT31;53633;49.932;10.884;2024-03-23T13:09:24;10.63;54.23
66722;SHT31;53633;49.932;10.884;2024-03-23T13:12:19;10.64;54.35
66722;SHT31;53633;49.932;10.884;2024-03-23T13:14:47;10.63;53.65
66722;SHT31;53633;49.932;10.884;2024-03-23T13:17:19;10.64;54.96
66722;SHT31;53633;49.932;10.884;2024-03-23T13:19:45;10.64;54.67
66722;SHT31;53633;49.932;10.884;2024-03-23T13:22:11;10.64;54.57
66722;SHT31;53633;49.932;10.884;2024-03-23T13:24:42;10.84;54.56
66722;SHT31;53633;49.932;10.884;2024-03-23T13:27:08;10.69;54.65
66722;SHT31;53633;49.932;10.884;2024-03-23T13:29:36;10.78;54.75
66722;SHT31;53633;49.932;10.884;2024-03-23T13:32:02;10.68;54.46
66722;SHT31;53633;49.932;10.884;2024-03-23T13:34:29;10.41;55.72
66722;SHT31;53633;49.932;10.884;2024-03-23T13:37:00;10.29;59.03
66722;SHT31;53633;49.932;10.884;2024-03-23T13:39:28;9.85;63.93
66722;SHT31;53633;49.932;10.884;2024-03-23T13:41:58;9.75;65.54
66722;SHT31;53633;49.932;10.884;2024-03-23T13:44:27;9.81;65.02
66722;SHT31;53633;49.932;10.884;2024-03-23T13:46:54;9.74;64.93
66722;SHT31;53633;49.932;10.884;2024-03-23T13:49:27;9.86;63.59
66722;SHT31;53633;49.932;10.884;2024-03-23T13:51:53;9.78;63.92
66722;SHT31;53633;49.932;10.884;2024-03-23T13:54:23;9.59;64.21
66722;SHT31;53633;49.932;10.884;2024-03-23T13:56:49;9.59;64.36
66722;SHT31;53633;49.932;10.884;2024-03-23T13:59:18;9.75;63.93
66722;SHT31;53633;49.932;10.884;2024-03-23T14:01:46;9.96;63.44
66722;SHT31;53633;49.932;10.884;2024-03-23T14:04:13;10.13;63.48
66722;SHT31;53633;49.932;10.884;2024-03-23T14:06:44;10.05;62.95
66722;SHT31;53633;49.932;10.884;2024-03-23T14:09:10;10.20;62.66
66722;SHT31;53633;49.932;10.884;2024-03-23T14:11:37;10.32;63.05
66722;SHT31;53633;49.932;10.884;2024-03-23T14:14:08;10.51;63.04
66722;SHT31;53633;49.932;10.884;2024-03-23T14:16:44;10.36;62.15
66722;SHT31;53633;49.932;10.884;2024-03-23T14:19:12;10.43;62.08
66722;SHT31;53633;49.932;10.884;2024-03-23T14:21:38;10.44;62.06
66722;SHT31;53633;49.932;10.884;2024-03-23T14:24:04;10.36;61.28
66722;SHT31;53633;49.932;10.884;2024-03-23T14:26:34;10.36;61.77
66722;SHT31;53633;49.932;10.884;2024-03-23T14:29:01;10.26;61.33
66722;SHT31;53633;49.932;10.884;2024-03-23T14:31:27;10.34;61.67
66722;SHT31;53633;49.932;10.884;2024-03-23T14:33:57;10.26;61.61
66722;SHT31;53633;49.932;10.884;2024-03-23T14:36:23;10.19;61.57
66722;SHT31;53633;49.932;10.884;2024-03-23T14:38:50;10.14;61.86
66722;SHT31;53633;49.932;10.884;2024-03-23T14:41:18;10.10;61.86
66722;SHT31;53633;49.932;10.884;2024-03-23T14:43:46;10.16;60.97
66722;SHT31;53633;49.932;10.884;2024-03-23T14:46:13;10.10;59.39
66722;SHT31;53633;49.932;10.884;2024-03-23T14:48:40;10.17;58.55
66722;SHT31;53633;49.932;10.884;2024-03-23T14:51:12;10.10;59.22
66722;SHT31;53633;49.932;10.884;2024-03-23T14:53:47;10.10;58.93
66722;SHT31;53633;49.932;10.884;2024-03-23T14:56:14;10.16;58.69
66722;SHT31;53633;49.932;10.884;2024-03-23T14:58:42;10.32;58.97
66722;SHT31;53633;49.932;10.884;2024-03-23T15:01:09;10.44;58.92
66722;SHT31;53633;49.932;10.884;2024-03-23T15:03:37;10.48;57.95
66722;SHT31;53633;49.932;10.884;2024-03-23T15:06:09;10.40;58.09
66722;SHT31;53633;49.932;10.884;2024-03-23T15:08:35;10.51;57.99
66722;SHT31;53633;49.932;10.884;2024-03-23T15:11:04;10.65;57.58
66722;SHT31;53633;49.932;10.884;2024-03-23T15:13:34;10.65;56.77
66722;SHT31;53633;49.932;10.884;2024-03-23T15:16:04;10.61;56.24
66722;SHT31;53633;49.932;10.884;2024-03-23T15:18:31;10.64;56.07
66722;SHT31;53633;49.932;10.884;2024-03-23T15:20:59;10.63;56.08
66722;SHT31;53633;49.932;10.884;2024-03-23T15:23:49;10.53;55.83
66722;SHT31;53633;49.932;10.884;2024-03-23T15:26:27;10.48;55.64
66722;SHT31;53633;49.932;10.884;2024-03-23T15:29:03;10.46;55.66
66722;SHT31;53633;49.932;10.884;2024-03-23T15:31:34;10.48;55.27
66722;SHT31;53633;49.932;10.884;2024-03-23T15:34:19;10.50;55.90
66722;SHT31;53633;49.932;10.884;2024-03-23T15:36:55;10.58;55.82
66722;SHT31;53633;49.932;10.884;2024-03-23T15:39:33;10.58;56.30
66722;SHT31;53633;49.932;10.884;2024-03-23T15:42:19;10.61;56.45
66722;SHT31;53633;49.932;10.884;2024-03-23T15:44:47;10.48;56.54
66722;SHT31;53633;49.932;10.884;2024-03-23T15:47:14;10.51;56.97
66722;SHT31;53633;49.932;10.884;2024-03-23T15:52:42;9.91;61.90
66722;SHT31;53633;49.932;10.884;2024-03-23T15:55:19;9.22;70.08
66722;SHT31;53633;49.932;10.884;2024-03-23T15:57:49;8.98;71.47
66722;SHT31;53633;49.932;10.884;2024-03-23T16:00:16;8.45;73.84
66722;SHT31;53633;49.932;10.884;2024-03-23T16:02:43;8.42;74.45
66722;SHT31;53633;49.932;10.884;2024-03-23T16:05:14;8.54;74.03
66722;SHT31;53633;49.932;10.884;2024-03-23T16:07:44;8.37;74.68
66722;SHT31;53633;49.932;10.884;2024-03-23T16:16:40;8.14;74.56
66722;SHT31;53633;49.932;10.884;2024-03-23T16:19:08;8.09;74.93
66722;SHT31;53633;49.932;10.884;2024-03-23T16:24:45;8.17;75.41
66722;SHT31;53633;49.932;10.884;2024-03-23T16:27:31;8.40;74.57
66722;SHT31;53633;49.932;10.884;2024-03-23T16:30:02;8.48;74.31
66722;SHT31;53633;49.932;10.884;2024-03-23T16:32:37;8.51;73.86
66722;SHT31;53633;49.932;10.884;2024-03-23T16:35:18;8.58;73.34
66722;SHT31;53633;49.932;10.884;2024-03-23T16:37:53;8.64;73.79
66722;SHT31;53633;49.932;10.884;2024-03-23T16:41:12;8.62;73.68
66722;SHT31;53633;49.932;10.884;2024-03-23T16:43:39;8.69;73.07
66722;SHT31;53633;49.932;10.884;2024-03-23T16:46:12;8.79;72.71
66722;SHT31;53633;49.932;10.884;2024-03-23T16:48:46;8.78;72.43
66722;SHT31;53633;49.932;10.884;2024-03-23T16:51:12;8.54;72.82
66722;SHT31;53633;49.932;10.884;2024-03-23T16:53:41;8.50;73.06
66722;SHT31;53633;49.932;10.884;2024-03-23T16:56:09;8.40;73.08
66722;SHT31;53633;49.932;10.884;2024-03-23T16:58:40;8.37;72.56
66722;SHT31;53633;49.932;10.884;2024-03-23T17:01:12;8.12;72.74
66722;SHT31;53633;49.932;10.884;2024-03-23T17:06:59;8.09;73.64
66722;SHT31;53633;49.932;10.884;2024-03-23T17:09:27;8.03;73.72